sensor_id;sensor_type;location;lat;lon;timestamp;pressure;altitude;pressure_sealevel;temperature;humidity
6090;BME280;3073;42.660;23.316;2022-09-14T00:02:26;94474.25;;;13.69;100.00
6090;BME280;3073;42.660;23.316;2022-09-14T00:04:52;94470.94;;;13.74;100.00
6090;BME280;3073;42.660;23.316;2022-09-14T00:07:19;94469.38;;;13.68;100.00
6090;BME280;3073;42.660;23.316;2022-09-14T00:09:46;94473.22;;;13.65;100.00
6090;BME280;3073;42.660;23.316;2022-09-14T00:12:14;94474.25;;;13.64;100.00
6090;BME280;3073;42.660;23.316;2022-09-14T00:14:42;94472.69;;;13.58;100.00
6090;BME280;3073;42.660;23.316;2022-09-14T00:17:10;94475.75;;;13.55;100.00
6090;BME280;3073;42.660;23.316;2022-09-14T00:19:37;94481.44;;;13.67;100.00
6090;BME280;3073;42.660;23.316;2022-09-14T00:22:03;94471.69;;;13.54;100.00
6090;BME280;3073;42.660;23.316;2022-09-14T00:24:31;94486.03;;;13.60;100.00
6090;BME280;3073;42.660;23.316;2022-09-14T00:26:59;94473.22;;;13.60;100.00
6090;BME280;3073;42.660;23.316;2022-09-14T00:29:27;94466.56;;;13.54;100.00
6090;BME280;3073;42.660;23.316;2022-09-14T00:31:56;94477.06;;;13.48;100.00
6090;BME280;3073;42.660;23.316;2022-09-14T00:34:23;94464.75;;;13.50;100.00
6090;BME280;3073;42.660;23.316;2022-09-14T00:36:50;94472.41;;;13.39;100.00
6090;BME280;3073;42.660;23.316;2022-09-14T00:39:19;94479.72;;;13.01;100.00
6090;BME280;3073;42.660;23.316;2022-09-14T00:41:49;94473.06;;;13.05;100.00
6090;BME280;3073;42.660;23.316;2022-09-14T00:47:30;94474.06;;;12.99;100.00
6090;BME280;3073;42.660;23.316;2022-09-14T00:50:01;94479.19;;;12.99;100.00
6090;BME280;3073;42.660;23.316;2022-09-14T00:52:31;94480.22;;;13.03;100.00
6090;BME280;3073;42.660;23.316;2022-09-14T00:55:00;94483.78;;;13.02;100.00
6090;BME280;3073;42.660;23.316;2022-09-14T00:57:34;94492.53;;;13.06;100.00
6090;BME280;3073;42.660;23.316;2022-09-14T01:00:05;94487.47;;;13.11;100.00
6090;BME280;3073;42.660;23.316;2022-09-14T01:02:36;94491.84;;;13.20;100.00
6090;BME280;3073;42.660;23.316;2022-09-14T01:05:04;94495.81;;;13.01;100.00
6090;BME280;3073;42.660;23.316;2022-09-14T01:07:41;94492.22;;;12.92;100.00
6090;BME280;3073;42.660;23.316;2022-09-14T01:10:21;94493.75;;;12.41;100.00
6090;BME280;3073;42.660;23.316;2022-09-14T01:13:02;94492.22;;;12.40;100.00
6090;BME280;3073;42.660;23.316;2022-09-14T01:15:37;94492.84;;;12.20;100.00
6090;BME280;3073;42.660;23.316;2022-09-14T01:18:15;94490.47;;;12.09;100.00
6090;BME280;3073;42.660;23.316;2022-09-14T01:20:46;94487.94;;;12.14;100.00
6090;BME280;3073;42.660;23.316;2022-09-14T01:23:19;94495.41;;;12.20;100.00
6090;BME280;3073;42.660;23.316;2022-09-14T01:26:05;94491.81;;;12.21;100.00
6090;BME280;3073;42.660;23.316;2022-09-14T01:28:40;94486.00;;;12.31;100.00
6090;BME280;3073;42.660;23.316;2022-09-14T01:31:12;94489.31;;;12.31;100.00
6090;BME280;3073;42.660;23.316;2022-09-14T01:33:47;94484.53;;;12.40;100.00
6090;BME280;3073;42.660;23.316;2022-09-14T01:36:17;94477.97;;;12.54;100.00
6090;BME280;3073;42.660;23.316;2022-09-14T01:38:46;94485.72;;;12.69;100.00
6090;BME280;3073;42.660;23.316;2022-09-14T01:41:17;94483.16;;;12.69;100.00
6090;BME280;3073;42.660;23.316;2022-09-14T01:43:50;94481.09;;;12.66;100.00
6090;BME280;3073;42.660;23.316;2022-09-14T01:46:22;94486.44;;;12.65;100.00
6090;BME280;3073;42.660;23.316;2022-09-14T01:48:56;94480.81;;;12.63;100.00
6090;BME280;3073;42.660;23.316;2022-09-14T01:51:32;94483.13;;;12.64;100.00
6090;BME280;3073;42.660;23.316;2022-09-14T01:54:03;94492.59;;;12.64;100.00
6090;BME280;3073;42.660;23.316;2022-09-14T01:56:35;94488.00;;;12.61;100.00
6090;BME280;3073;42.660;23.316;2022-09-14T01:59:09;94487.75;;;12.67;100.00
6090;BME280;3073;42.660;23.316;2022-09-14T02:01:42;94483.44;;;12.73;100.00
6090;BME280;3073;42.660;23.316;2022-09-14T02:04:16;94481.66;;;12.78;100.00
6090;BME280;3073;42.660;23.316;2022-09-14T02:06:48;94482.47;;;12.84;100.00
6090;BME280;3073;42.660;23.316;2022-09-14T02:09:17;94487.28;;;12.75;100.00
6090;BME280;3073;42.660;23.316;2022-09-14T02:11:46;94489.56;;;12.72;100.00
6090;BME280;3073;42.660;23.316;2022-09-14T02:14:16;94482.94;;;12.76;100.00
6090;BME280;3073;42.660;23.316;2022-09-14T02:16:43;94492.13;;;12.67;100.00
6090;BME280;3073;42.660;23.316;2022-09-14T02:19:11;94489.28;;;12.63;100.00
6090;BME280;3073;42.660;23.316;2022-09-14T02:21:38;94491.72;;;12.48;100.00
6090;BME280;3073;42.660;23.316;2022-09-14T02:24:06;94486.38;;;12.50;100.00
6090;BME280;3073;42.660;23.316;2022-09-14T02:26:33;94487.88;;;12.41;100.00
6090;BME280;3073;42.660;23.316;2022-09-14T02:29:00;94484.50;;;12.35;100.00
6090;BME280;3073;42.660;23.316;2022-09-14T02:31:36;94481.09;;;12.24;100.00
6090;BME280;3073;42.660;23.316;2022-09-14T02:34:10;94480.34;;;12.24;100.00
6090;BME280;3073;42.660;23.316;2022-09-14T02:36:46;94494.84;;;12.13;100.00
6090;BME280;3073;42.660;23.316;2022-09-14T02:39:23;94483.31;;;12.11;100.00
6090;BME280;3073;42.660;23.316;2022-09-14T02:41:58;94485.34;;;12.09;100.00
6090;BME280;3073;42.660;23.316;2022-09-14T02:44:34;94488.16;;;12.07;100.00
6090;BME280;3073;42.660;23.316;2022-09-14T02:47:12;94490.50;;;12.14;100.00
6090;BME280;3073;42.660;23.316;2022-09-14T02:49:44;94490.25;;;12.15;100.00
6090;BME280;3073;42.660;23.316;2022-09-14T02:52:15;94490.22;;;12.10;100.00
6090;BME280;3073;42.660;23.316;2022-09-14T02:54:49;94495.28;;;12.05;100.00
6090;BME280;3073;42.660;23.316;2022-09-14T02:57:17;94493.28;;;12.07;100.00
6090;BME280;3073;42.660;23.316;2022-09-14T02:59:44;94493.22;;;12.02;100.00
6090;BME280;3073;42.660;23.316;2022-09-14T03:02:13;94491.94;;;12.00;100.00
6090;BME280;3073;42.660;23.316;2022-09-14T03:04:39;94485.53;;;11.97;100.00
6090;BME280;3073;42.660;23.316;2022-09-14T03:07:06;94494.84;;;11.81;100.00
6090;BME280;3073;42.660;23.316;2022-09-14T03:09:33;94489.22;;;11.79;100.00
6090;BME280;3073;42.660;23.316;2022-09-14T03:12:00;94496.56;;;11.49;100.00
6090;BME280;3073;42.660;23.316;2022-09-14T03:14:27;94487.91;;;11.50;100.00
6090;BME280;3073;42.660;23.316;2022-09-14T03:16:54;94489.31;;;11.41;100.00
6090;BME280;3073;42.660;23.316;2022-09-14T03:19:22;94489.97;;;11.26;100.00
6090;BME280;3073;42.660;23.316;2022-09-14T03:21:49;94500.31;;;11.42;100.00
6090;BME280;3073;42.660;23.316;2022-09-14T03:24:16;94489.88;;;11.21;100.00
6090;BME280;3073;42.660;23.316;2022-09-14T03:26:43;94490.63;;;11.17;100.00
6090;BME280;3073;42.660;23.316;2022-09-14T03:29:10;94493.47;;;11.20;100.00
6090;BME280;3073;42.660;23.316;2022-09-14T03:31:37;94492.22;;;11.23;100.00
6090;BME280;3073;42.660;23.316;2022-09-14T03:34:04;94489.88;;;11.21;100.00
6090;BME280;3073;42.660;23.316;2022-09-14T03:36:32;94483.66;;;11.34;100.00
6090;BME280;3073;42.660;23.316;2022-09-14T03:38:59;94498.03;;;11.40;100.00
6090;BME280;3073;42.660;23.316;2022-09-14T03:41:27;94493.31;;;11.54;100.00
6090;BME280;3073;42.660;23.316;2022-09-14T03:43:55;94479.06;;;11.63;100.00
6090;BME280;3073;42.660;23.316;2022-09-14T03:46:23;94480.97;;;11.72;100.00
6090;BME280;3073;42.660;23.316;2022-09-14T03:48:50;94495.09;;;11.80;100.00
6090;BME280;3073;42.660;23.316;2022-09-14T03:51:19;94483.13;;;11.85;100.00
6090;BME280;3073;42.660;23.316;2022-09-14T03:53:47;94499.16;;;11.76;100.00
6090;BME280;3073;42.660;23.316;2022-09-14T03:56:16;94494.84;;;11.81;100.00
6090;BME280;3073;42.660;23.316;2022-09-14T03:58:44;94500.91;;;11.70;100.00
6090;BME280;3073;42.660;23.316;2022-09-14T04:01:13;94501.88;;;11.69;100.00
6090;BME280;3073;42.660;23.316;2022-09-14T04:03:40;94495.94;;;11.64;100.00
6090;BME280;3073;42.660;23.316;2022-09-14T04:06:08;94493.69;;;11.67;100.00
6090;BME280;3073;42.660;23.316;2022-09-14T04:08:37;94496.69;;;11.64;100.00
6090;BME280;3073;42.660;23.316;2022-09-14T04:11:12;94496.16;;;11.57;100.00
6090;BME280;3073;42.660;23.316;2022-09-14T04:13:40;94502.69;;;11.48;100.00
6090;BME280;3073;42.660;23.316;2022-09-14T04:16:07;94491.69;;;11.48;100.00
6090;BME280;3073;42.660;23.316;2022-09-14T04:18:35;94496.47;;;11.39;100.00
6090;BME280;3073;42.660;23.316;2022-09-14T04:21:03;94492.44;;;11.43;100.00
6090;BME280;3073;42.660;23.316;2022-09-14T04:23:30;94501.09;;;11.42;100.00
6090;BME280;3073;42.660;23.316;2022-09-14T04:25:58;94490.88;;;11.42;100.00
6090;BME280;3073;42.660;23.316;2022-09-14T04:28:26;94501.06;;;11.37;100.00
6090;BME280;3073;42.660;23.316;2022-09-14T04:30:54;94487.34;;;11.48;100.00
6090;BME280;3073;42.660;23.316;2022-09-14T04:33:21;94491.47;;;11.49;100.00
6090;BME280;3073;42.660;23.316;2022-09-14T04:35:58;94492.56;;;11.58;100.00
6090;BME280;3073;42.660;23.316;2022-09-14T04:38:26;94497.63;;;11.53;100.00
6090;BME280;3073;42.660;23.316;2022-09-14T04:40:54;94507.19;;;11.63;100.00
6090;BME280;3073;42.660;23.316;2022-09-14T04:43:21;94504.47;;;12.01;100.00
6090;BME280;3073;42.660;23.316;2022-09-14T04:45:50;94506.56;;;12.46;100.00
6090;BME280;3073;42.660;23.316;2022-09-14T04:48:17;94503.00;;;12.99;100.00
6090;BME280;3073;42.660;23.316;2022-09-14T04:50:45;94510.34;;;13.43;100.00
6090;BME280;3073;42.660;23.316;2022-09-14T04:53:11;94514.78;;;13.67;100.00
6090;BME280;3073;42.660;23.316;2022-09-14T04:55:38;94510.69;;;13.91;100.00
6090;BME280;3073;42.660;23.316;2022-09-14T04:58:06;94513.75;;;14.09;100.00
6090;BME280;3073;42.660;23.316;2022-09-14T05:00:34;94514.78;;;14.53;100.00
6090;BME280;3073;42.660;23.316;2022-09-14T05:03:03;94521.31;;;15.05;100.00
6090;BME280;3073;42.660;23.316;2022-09-14T05:05:33;94520.72;;;15.28;100.00
6090;BME280;3073;42.660;23.316;2022-09-14T05:08:01;94526.28;;;15.55;100.00
6090;BME280;3073;42.660;23.316;2022-09-14T05:10:27;94522.75;;;15.90;100.00
6090;BME280;3073;42.660;23.316;2022-09-14T05:12:55;94525.19;;;16.05;100.00
6090;BME280;3073;42.660;23.316;2022-09-14T05:15:21;94536.72;;;16.13;100.00
6090;BME280;3073;42.660;23.316;2022-09-14T05:17:49;94529.09;;;16.31;100.00
6090;BME280;3073;42.660;23.316;2022-09-14T05:20:17;94538.44;;;16.27;100.00
6090;BME280;3073;42.660;23.316;2022-09-14T05:22:48;94534.69;;;16.10;100.00
6090;BME280;3073;42.660;23.316;2022-09-14T05:25:15;94535.69;;;16.14;100.00
6090;BME280;3073;42.660;23.316;2022-09-14T05:27:42;94542.66;;;16.13;100.00
6090;BME280;3073;42.660;23.316;2022-09-14T05:30:10;94542.91;;;16.12;100.00
6090;BME280;3073;42.660;23.316;2022-09-14T05:32:37;94541.81;;;15.84;100.00
6090;BME280;3073;42.660;23.316;2022-09-14T05:35:05;94546.41;;;16.26;100.00
6090;BME280;3073;42.660;23.316;2022-09-14T05:37:38;94543.03;;;16.64;100.00
6090;BME280;3073;42.660;23.316;2022-09-14T05:40:06;94543.53;;;16.90;100.00
6090;BME280;3073;42.660;23.316;2022-09-14T05:42:33;94548.09;;;17.22;100.00
6090;BME280;3073;42.660;23.316;2022-09-14T05:45:00;94553.44;;;17.49;100.00
6090;BME280;3073;42.660;23.316;2022-09-14T05:47:28;94545.16;;;17.52;100.00
6090;BME280;3073;42.660;23.316;2022-09-14T05:49:55;94557.19;;;17.80;100.00
6090;BME280;3073;42.660;23.316;2022-09-14T05:52:22;94557.34;;;18.08;100.00
6090;BME280;3073;42.660;23.316;2022-09-14T05:54:50;94560.41;;;18.10;100.00
6090;BME280;3073;42.660;23.316;2022-09-14T05:57:17;94562.28;;;17.85;100.00
6090;BME280;3073;42.660;23.316;2022-09-14T05:59:44;94556.41;;;18.17;100.00
6090;BME280;3073;42.660;23.316;2022-09-14T06:02:11;94565.41;;;18.71;100.00
6090;BME280;3073;42.660;23.316;2022-09-14T06:04:38;94568.03;;;18.84;100.00
6090;BME280;3073;42.660;23.316;2022-09-14T06:07:05;94562.09;;;18.97;100.00
6090;BME280;3073;42.660;23.316;2022-09-14T06:09:31;94567.78;;;18.67;100.00
6090;BME280;3073;42.660;23.316;2022-09-14T06:12:00;94569.41;;;18.63;100.00
6090;BME280;3073;42.660;23.316;2022-09-14T06:14:27;94561.84;;;18.34;100.00
6090;BME280;3073;42.660;23.316;2022-09-14T06:16:54;94557.13;;;18.55;100.00
6090;BME280;3073;42.660;23.316;2022-09-14T06:19:21;94561.03;;;18.98;100.00
6090;BME280;3073;42.660;23.316;2022-09-14T06:21:48;94557.31;;;19.32;100.00
6090;BME280;3073;42.660;23.316;2022-09-14T06:24:15;94547.13;;;19.98;96.92
6090;BME280;3073;42.660;23.316;2022-09-14T06:26:42;94549.00;;;20.20;93.00
6090;BME280;3073;42.660;23.316;2022-09-14T06:29:10;94552.59;;;20.33;88.86
6090;BME280;3073;42.660;23.316;2022-09-14T06:31:38;94561.84;;;19.89;85.67
6090;BME280;3073;42.660;23.316;2022-09-14T06:34:05;94558.66;;;19.43;89.60
6090;BME280;3073;42.660;23.316;2022-09-14T06:36:32;94544.97;;;19.42;93.43
6090;BME280;3073;42.660;23.316;2022-09-14T06:38:59;94543.63;;;19.94;90.25
6090;BME280;3073;42.660;23.316;2022-09-14T06:41:27;94548.97;;;19.35;96.48
6090;BME280;3073;42.660;23.316;2022-09-14T06:43:58;94550.59;;;20.08;92.02
6090;BME280;3073;42.660;23.316;2022-09-14T06:46:31;94550.25;;;20.76;85.60
6090;BME280;3073;42.660;23.316;2022-09-14T06:49:00;94559.06;;;20.66;82.75
6090;BME280;3073;42.660;23.316;2022-09-14T06:51:29;94555.28;;;21.42;81.57
6090;BME280;3073;42.660;23.316;2022-09-14T06:53:58;94555.09;;;22.04;78.08
6090;BME280;3073;42.660;23.316;2022-09-14T06:56:25;94564.56;;;22.34;74.92
6090;BME280;3073;42.660;23.316;2022-09-14T06:58:52;94564.09;;;22.06;70.03
6090;BME280;3073;42.660;23.316;2022-09-14T07:01:20;94564.81;;;22.76;70.05
6090;BME280;3073;42.660;23.316;2022-09-14T07:03:48;94562.34;;;23.26;67.63
6090;BME280;3073;42.660;23.316;2022-09-14T07:06:19;94562.81;;;22.81;63.71
6090;BME280;3073;42.660;23.316;2022-09-14T07:08:47;94565.91;;;22.32;65.07
6090;BME280;3073;42.660;23.316;2022-09-14T07:11:16;94556.13;;;21.77;67.54
6090;BME280;3073;42.660;23.316;2022-09-14T07:13:44;94557.19;;;21.76;71.15
6090;BME280;3073;42.660;23.316;2022-09-14T07:16:12;94547.09;;;22.43;68.03
6090;BME280;3073;42.660;23.316;2022-09-14T07:18:40;94551.91;;;23.26;66.21
6090;BME280;3073;42.660;23.316;2022-09-14T07:21:10;94543.44;;;24.17;62.32
6090;BME280;3073;42.660;23.316;2022-09-14T07:23:39;94547.84;;;24.37;61.15
6090;BME280;3073;42.660;23.316;2022-09-14T07:26:08;94553.25;;;23.70;59.38
6090;BME280;3073;42.660;23.316;2022-09-14T07:28:37;94550.09;;;24.26;58.67
6090;BME280;3073;42.660;23.316;2022-09-14T07:31:12;94550.28;;;24.00;59.07
6090;BME280;3073;42.660;23.316;2022-09-14T07:33:40;94548.91;;;24.56;55.47
6090;BME280;3073;42.660;23.316;2022-09-14T07:36:10;94536.22;;;24.79;55.77
6090;BME280;3073;42.660;23.316;2022-09-14T07:38:37;94543.13;;;24.51;56.80
6090;BME280;3073;42.660;23.316;2022-09-14T07:41:04;94541.38;;;24.01;57.72
6090;BME280;3073;42.660;23.316;2022-09-14T07:43:31;94545.16;;;24.45;56.13
6090;BME280;3073;42.660;23.316;2022-09-14T07:46:00;94541.63;;;24.62;57.00
6090;BME280;3073;42.660;23.316;2022-09-14T07:48:27;94548.47;;;25.36;56.22
6090;BME280;3073;42.660;23.316;2022-09-14T07:51:05;94548.34;;;25.81;52.90
6090;BME280;3073;42.660;23.316;2022-09-14T07:53:36;94550.41;;;25.87;52.42
6090;BME280;3073;42.660;23.316;2022-09-14T07:56:04;94549.03;;;26.45;50.77
6090;BME280;3073;42.660;23.316;2022-09-14T07:58:32;94546.38;;;26.73;50.17
6090;BME280;3073;42.660;23.316;2022-09-14T08:01:00;94545.94;;;26.16;49.92
6090;BME280;3073;42.660;23.316;2022-09-14T08:03:27;94548.69;;;25.19;52.84
6090;BME280;3073;42.660;23.316;2022-09-14T08:05:59;94549.97;;;24.23;53.75
6090;BME280;3073;42.660;23.316;2022-09-14T08:08:30;94554.47;;;24.67;54.46
6090;BME280;3073;42.660;23.316;2022-09-14T08:11:04;94553.34;;;24.56;53.72
6090;BME280;3073;42.660;23.316;2022-09-14T08:13:32;94553.06;;;25.27;54.38
6090;BME280;3073;42.660;23.316;2022-09-14T08:16:00;94550.34;;;26.11;51.37
6090;BME280;3073;42.660;23.316;2022-09-14T08:18:28;94543.38;;;26.87;50.74
6090;BME280;3073;42.660;23.316;2022-09-14T08:20:55;94548.38;;;27.54;47.48
6090;BME280;3073;42.660;23.316;2022-09-14T08:23:22;94540.00;;;27.18;48.62
6090;BME280;3073;42.660;23.316;2022-09-14T08:25:49;94536.56;;;27.99;46.88
6090;BME280;3073;42.660;23.316;2022-09-14T08:28:18;94536.63;;;29.02;44.63
6090;BME280;3073;42.660;23.316;2022-09-14T08:30:45;94537.47;;;29.09;43.83
6090;BME280;3073;42.660;23.316;2022-09-14T08:33:12;94536.56;;;28.98;42.56
6090;BME280;3073;42.660;23.316;2022-09-14T08:35:42;94539.22;;;28.79;41.53
6090;BME280;3073;42.660;23.316;2022-09-14T08:38:09;94536.59;;;27.64;43.56
6090;BME280;3073;42.660;23.316;2022-09-14T08:40:42;94534.81;;;27.68;44.18
6090;BME280;3073;42.660;23.316;2022-09-14T08:43:10;94544.06;;;27.81;44.49
6090;BME280;3073;42.660;23.316;2022-09-14T08:45:41;94543.25;;;27.77;44.44
6090;BME280;3073;42.660;23.316;2022-09-14T08:48:16;94542.63;;;27.84;43.66
6090;BME280;3073;42.660;23.316;2022-09-14T08:50:44;94534.63;;;28.53;42.92
6090;BME280;3073;42.660;23.316;2022-09-14T08:53:11;94528.47;;;28.65;43.13
6090;BME280;3073;42.660;23.316;2022-09-14T08:55:41;94537.56;;;28.90;43.03
6090;BME280;3073;42.660;23.316;2022-09-14T08:58:20;94531.00;;;29.03;41.70
6090;BME280;3073;42.660;23.316;2022-09-14T09:00:54;94521.09;;;28.71;42.17
6090;BME280;3073;42.660;23.316;2022-09-14T09:03:39;94528.41;;;30.08;41.42
6090;BME280;3073;42.660;23.316;2022-09-14T09:06:15;94524.44;;;30.55;39.40
6090;BME280;3073;42.660;23.316;2022-09-14T09:08:51;94518.56;;;30.02;39.96
6090;BME280;3073;42.660;23.316;2022-09-14T09:11:24;94523.63;;;30.51;41.03
6090;BME280;3073;42.660;23.316;2022-09-14T09:13:53;94522.19;;;30.97;39.04
6090;BME280;3073;42.660;23.316;2022-09-14T09:16:23;94517.00;;;31.62;38.45
6090;BME280;3073;42.660;23.316;2022-09-14T09:18:56;94517.78;;;31.67;37.23
6090;BME280;3073;42.660;23.316;2022-09-14T09:21:29;94520.53;;;30.42;38.69
6090;BME280;3073;42.660;23.316;2022-09-14T09:24:11;94511.53;;;29.83;39.26
6090;BME280;3073;42.660;23.316;2022-09-14T09:26:41;94507.94;;;29.39;39.47
6090;BME280;3073;42.660;23.316;2022-09-14T09:29:10;94510.00;;;28.20;41.36
6090;BME280;3073;42.660;23.316;2022-09-14T09:31:40;94506.38;;;28.47;42.40
6090;BME280;3073;42.660;23.316;2022-09-14T09:34:11;94509.09;;;29.19;41.10
6090;BME280;3073;42.660;23.316;2022-09-14T09:36:41;94504.41;;;29.57;39.69
6090;BME280;3073;42.660;23.316;2022-09-14T09:39:09;94500.84;;;30.32;39.19
6090;BME280;3073;42.660;23.316;2022-09-14T09:41:42;94503.19;;;30.41;37.80
6090;BME280;3073;42.660;23.316;2022-09-14T09:44:11;94511.44;;;30.76;37.67
6090;BME280;3073;42.660;23.316;2022-09-14T09:46:44;94509.69;;;30.91;37.64
6090;BME280;3073;42.660;23.316;2022-09-14T09:49:19;94498.00;;;31.36;37.42
6090;BME280;3073;42.660;23.316;2022-09-14T09:51:47;94501.97;;;32.60;35.82
6090;BME280;3073;42.660;23.316;2022-09-14T09:54:31;94490.66;;;32.88;35.90
6090;BME280;3073;42.660;23.316;2022-09-14T09:57:00;94499.00;;;33.22;35.99
6090;BME280;3073;42.660;23.316;2022-09-14T09:59:30;94488.34;;;33.50;34.51
6090;BME280;3073;42.660;23.316;2022-09-14T10:02:28;94487.47;;;34.02;33.63
6090;BME280;3073;42.660;23.316;2022-09-14T10:04:58;94481.28;;;31.76;35.59
6090;BME280;3073;42.660;23.316;2022-09-14T10:07:27;94480.78;;;29.87;38.26
6090;BME280;3073;42.660;23.316;2022-09-14T10:10:10;94485.13;;;30.80;38.60
6090;BME280;3073;42.660;23.316;2022-09-14T10:12:55;94467.53;;;31.45;37.47
6090;BME280;3073;42.660;23.316;2022-09-14T10:15:23;94470.25;;;32.74;35.02
6090;BME280;3073;42.660;23.316;2022-09-14T10:18:07;94459.19;;;33.75;33.92
6090;BME280;3073;42.660;23.316;2022-09-14T10:23:33;94454.72;;;33.40;33.72
6090;BME280;3073;42.660;23.316;2022-09-14T10:26:26;94461.31;;;34.08;33.75
6090;BME280;3073;42.660;23.316;2022-09-14T10:29:27;94464.63;;;34.30;31.90
6090;BME280;3073;42.660;23.316;2022-09-14T10:32:01;94463.25;;;34.70;31.63
6090;BME280;3073;42.660;23.316;2022-09-14T10:34:32;94463.97;;;34.77;31.77
6090;BME280;3073;42.660;23.316;2022-09-14T10:37:10;94459.13;;;33.92;31.51
6090;BME280;3073;42.660;23.316;2022-09-14T10:39:44;94445.53;;;33.83;31.59
6090;BME280;3073;42.660;23.316;2022-09-14T10:42:16;94442.31;;;32.59;32.26
6090;BME280;3073;42.660;23.316;2022-09-14T10:45:01;94451.69;;;32.32;33.26
6090;BME280;3073;42.660;23.316;2022-09-14T10:47:51;94449.22;;;34.03;31.69
6090;BME280;3073;42.660;23.316;2022-09-14T10:50:31;94441.38;;;34.62;31.03
6090;BME280;3073;42.660;23.316;2022-09-14T10:53:10;94436.25;;;34.85;31.21
6090;BME280;3073;42.660;23.316;2022-09-14T10:55:42;94443.81;;;35.69;29.78
6090;BME280;3073;42.660;23.316;2022-09-14T10:58:23;94440.28;;;36.39;29.36
6090;BME280;3073;42.660;23.316;2022-09-14T11:01:01;94437.22;;;35.80;29.56
6090;BME280;3073;42.660;23.316;2022-09-14T11:03:46;94437.72;;;34.38;30.66
6090;BME280;3073;42.660;23.316;2022-09-14T11:06:25;94436.94;;;34.38;29.69
6090;BME280;3073;42.660;23.316;2022-09-14T11:08:59;94432.06;;;32.43;29.77
6090;BME280;3073;42.660;23.316;2022-09-14T11:11:35;94430.50;;;32.10;29.46
6090;BME280;3073;42.660;23.316;2022-09-14T11:14:19;94435.00;;;32.06;28.88
6090;BME280;3073;42.660;23.316;2022-09-14T11:16:59;94421.25;;;29.79;30.58
6090;BME280;3073;42.660;23.316;2022-09-14T11:19:37;94425.75;;;29.45;30.65
6090;BME280;3073;42.660;23.316;2022-09-14T11:22:13;94422.66;;;29.13;31.23
6090;BME280;3073;42.660;23.316;2022-09-14T11:24:48;94434.75;;;30.88;31.79
6090;BME280;3073;42.660;23.316;2022-09-14T11:27:23;94428.13;;;31.81;30.19
6090;BME280;3073;42.660;23.316;2022-09-14T11:29:54;94421.53;;;32.57;28.18
6090;BME280;3073;42.660;23.316;2022-09-14T11:32:26;94416.03;;;31.76;29.29
6090;BME280;3073;42.660;23.316;2022-09-14T11:35:00;94408.13;;;31.04;29.74
6090;BME280;3073;42.660;23.316;2022-09-14T11:37:35;94409.03;;;29.94;31.67
6090;BME280;3073;42.660;23.316;2022-09-14T11:40:14;94408.03;;;30.93;31.98
6090;BME280;3073;42.660;23.316;2022-09-14T11:42:47;94403.06;;;31.43;30.51
6090;BME280;3073;42.660;23.316;2022-09-14T11:45:19;94391.69;;;32.57;29.50
6090;BME280;3073;42.660;23.316;2022-09-14T11:47:53;94392.00;;;33.33;28.31
6090;BME280;3073;42.660;23.316;2022-09-14T11:50:23;94388.09;;;33.73;29.20
6090;BME280;3073;42.660;23.316;2022-09-14T11:53:01;94392.84;;;32.70;29.00
6090;BME280;3073;42.660;23.316;2022-09-14T11:55:29;94397.75;;;31.29;30.67
6090;BME280;3073;42.660;23.316;2022-09-14T11:57:56;94392.41;;;32.08;30.67
6090;BME280;3073;42.660;23.316;2022-09-14T12:00:43;94392.81;;;32.31;30.16
6090;BME280;3073;42.660;23.316;2022-09-14T12:03:16;94387.53;;;32.45;29.02
6090;BME280;3073;42.660;23.316;2022-09-14T12:05:44;94387.19;;;32.72;29.93
6090;BME280;3073;42.660;23.316;2022-09-14T12:08:38;94389.78;;;32.96;29.03
6090;BME280;3073;42.660;23.316;2022-09-14T12:11:39;94392.06;;;32.87;28.11
6090;BME280;3073;42.660;23.316;2022-09-14T12:14:29;94385.66;;;32.35;28.23
6090;BME280;3073;42.660;23.316;2022-09-14T12:17:03;94387.53;;;30.66;30.10
6090;BME280;3073;42.660;23.316;2022-09-14T12:19:31;94389.72;;;30.20;31.57
6090;BME280;3073;42.660;23.316;2022-09-14T12:22:23;94389.16;;;30.84;30.82
6090;BME280;3073;42.660;23.316;2022-09-14T12:25:14;94386.56;;;31.60;30.57
6090;BME280;3073;42.660;23.316;2022-09-14T12:27:43;94387.06;;;31.97;30.42
6090;BME280;3073;42.660;23.316;2022-09-14T12:39:26;94377.03;;;31.38;30.56
6090;BME280;3073;42.660;23.316;2022-09-14T12:42:03;94373.38;;;30.91;31.19
6090;BME280;3073;42.660;23.316;2022-09-14T12:44:36;94372.69;;;31.77;30.90
6090;BME280;3073;42.660;23.316;2022-09-14T12:47:37;94374.31;;;31.17;32.10
6090;BME280;3073;42.660;23.316;2022-09-14T12:50:08;94371.78;;;30.80;32.06
6090;BME280;3073;42.660;23.316;2022-09-14T12:52:44;94377.47;;;29.04;33.66
6090;BME280;3073;42.660;23.316;2022-09-14T12:55:28;94371.88;;;28.57;34.55
6090;BME280;3073;42.660;23.316;2022-09-14T12:58:01;94382.38;;;29.95;33.70
6090;BME280;3073;42.660;23.316;2022-09-14T13:00:50;94377.13;;;30.90;33.07
6090;BME280;3073;42.660;23.316;2022-09-14T13:03:38;94376.19;;;31.20;32.06
6090;BME280;3073;42.660;23.316;2022-09-14T13:06:10;94373.53;;;32.06;32.64
6090;BME280;3073;42.660;23.316;2022-09-14T13:08:42;94379.69;;;31.38;32.12
6090;BME280;3073;42.660;23.316;2022-09-14T13:11:09;94384.81;;;31.09;33.10
6090;BME280;3073;42.660;23.316;2022-09-14T13:13:47;94386.84;;;30.32;34.07
6090;BME280;3073;42.660;23.316;2022-09-14T13:16:17;94386.13;;;30.86;33.28
6090;BME280;3073;42.660;23.316;2022-09-14T13:18:44;94378.34;;;31.83;32.83
6090;BME280;3073;42.660;23.316;2022-09-14T13:21:19;94390.09;;;31.99;32.49
6090;BME280;3073;42.660;23.316;2022-09-14T13:23:47;94377.63;;;31.82;33.00
6090;BME280;3073;42.660;23.316;2022-09-14T13:26:17;94379.97;;;32.12;32.34
6090;BME280;3073;42.660;23.316;2022-09-14T13:28:48;94371.44;;;31.50;33.05
6090;BME280;3073;42.660;23.316;2022-09-14T13:31:26;94375.25;;;30.91;34.13
6090;BME280;3073;42.660;23.316;2022-09-14T13:33:54;94376.06;;;31.74;33.74
6090;BME280;3073;42.660;23.316;2022-09-14T13:36:24;94374.38;;;31.31;33.85
6090;BME280;3073;42.660;23.316;2022-09-14T13:38:52;94377.41;;;29.57;35.56
6090;BME280;3073;42.660;23.316;2022-09-14T13:41:20;94375.25;;;29.06;37.10
6090;BME280;3073;42.660;23.316;2022-09-14T13:43:52;94382.31;;;28.76;36.58